Saint John's, Antigua and Barbuda
Current Conditions -  °F | °C
As of 12:00 PM on Monday 24 Nov 2014 (Local Time) from TAPA Reporting Station
Scattered Clouds Scattered Clouds  
Wind Chill: 79°   Ceiling: Unl
Heat Index: 82°   Visibility: 6mi
Dew Point: 75°   Wind: 18mph
Humidity: 89%   Direction: 80°E
Pressure: 30"   Gusts: NA
Location:  17.11°N, 61.85°W
Report Text: TAPA 241600Z 08016KT 9999 FEW010 SCT016 26/24 Q1016 NOSIG
Loading
Personal Weather Stations






























Interactive Weather Map New forecast layout! Learn more

10-Day Weather Forecast

Advertisements
Track Severe Weather on mobile